Latest Weather Observations for Argyle

IDW60801

Issued at 8:03 pm WST Thursday 30 June 2016 (issued every 30 minutes, with the page automatically refreshed every 10 minutes)

About weather observations | Map of weather stations | Latest weather observations for WA | Other Formats
Station Details ID: 002064 Name: ARGYLE AERODROME Lat: -16.64 Lon: 128.45 Height: 164.0 m
Data from the previous 72 hours. | See also: Recent months at Argyle
Date/Time
WST
Temp
°C
App
Temp
°C
Dew
Point
°C
Rel
Hum
%
Delta-T
°C
Wind Press
QNH
hPa
Press
MSL
hPa
Rain since
9am
mm
Dir  Spd
km/h
Gust
km/h
Spd
kts
Gust
kts
30/08:00pm 24.7 20.8 1.2 21 11.1 SW 11 13 6 7 1017.1 - 0.0
30/07:30pm 24.6 20.6 0.6 20 11.2 WSW 11 11 6 6 1016.8 - 0.0
30/07:00pm 25.1 21.5 0.9 20 11.4 W 9 9 5 5 1016.5 - 0.0
30/06:30pm 25.4 22.0 1.6 21 11.4 W 9 9 5 5 1016.2 - 0.0
30/06:00pm 26.3 23.2 1.6 20 11.9 WNW 7 9 4 5 1015.9 1015.2 0.0
30/05:30pm 27.4 24.7 2.5 20 12.3 N 6 7 3 4 1015.6 - 0.0
30/05:00pm 28.6 26.8 3.5 20 12.7 NE 2 7 1 4 1015.5 - 0.0
30/04:30pm 29.8 27.5 2.8 18 13.6 E 4 7 2 4 1015.2 - 0.0
30/04:00pm 30.3 27.0 0.0 14 14.6 ENE 7 11 4 6 1015.0 - 0.0
30/03:30pm 30.6 26.7 -1.5 12 15.1 E 9 17 5 9 1014.9 - 0.0
30/03:00pm 30.3 26.5 -0.4 14 14.7 ESE 9 13 5 7 1014.9 1014.2 0.0
30/02:30pm 30.6 27.3 -1.0 13 15.0 E 6 15 3 8 1014.9 - 0.0
30/02:00pm 29.9 25.1 -2.5 12 14.9 ENE 13 20 7 11 1015.0 - 0.0
30/01:30pm 30.4 25.6 -2.5 11 15.2 ENE 13 20 7 11 1015.5 - 0.0
30/01:00pm 29.6 25.5 -0.5 14 14.3 ENE 11 15 6 8 1015.9 - 0.0
30/12:30pm 29.7 25.3 -2.1 12 14.7 E 11 19 6 10 1016.4 - 0.0
30/12:00pm 28.5 24.3 -3.5 12 14.3 E 9 17 5 9 1017.1 - 0.0
30/11:30am 27.7 24.1 -2.3 14 13.6 N 7 17 4 9 1018.0 - 0.0
30/10:30am 25.8 20.8 -4.6 13 13.0 ESE 13 20 7 11 1019.4 - 0.0
30/09:30am 24.7 19.1 -6.2 12 12.7 E 15 20 8 11 1020.1 - 0.0
30/09:00am 24.0 18.4 -6.6 12 12.4 ENE 15 24 8 13 1020.4 1019.7 0.0
30/08:30am 22.9 18.6 -4.9 15 11.5 ESE 9 17 5 9 1020.5 - 0.0
30/08:00am 22.5 18.3 -3.9 17 11.1 ESE 9 15 5 8 1020.4 - 0.0
30/07:30am 21.2 19.0 -1.5 22 9.9 CALM 0 0 0 0 1020.0 - 0.0
30/07:00am 18.5 15.2 -1.1 26 8.4 NW 6 6 3 3 1019.7 - 0.0
30/06:30am 16.3 14.2 -0.7 31 7.2 CALM 0 0 0 0 1019.4 - 0.0
30/05:30am 15.8 12.8 0.6 35 6.6 ESE 6 7 3 4 1018.8 - 0.0
30/05:00am 16.0 12.3 -0.1 33 6.9 ESE 9 11 5 6 1018.5 - 0.0
30/04:30am 16.7 12.6 0.0 32 7.2 E 11 11 6 6 1018.3 - 0.0
30/04:00am 18.0 14.6 -0.5 28 8.0 ESE 7 9 4 5 1018.3 - 0.0
30/03:00am 19.6 16.2 -0.4 26 8.8 SSW 7 9 4 5 1018.2 1017.6 0.0
30/02:30am 18.5 15.2 0.1 29 8.1 SW 7 9 4 5 1018.4 - 0.0
30/02:00am 18.1 15.7 2.4 35 7.2 WSW 4 6 2 3 1018.5 - 0.0
30/01:30am 18.1 14.9 0.8 31 7.7 WSW 7 9 4 5 1018.7 - 0.0
30/12:00am 20.7 17.5 -0.2 24 9.3 S 6 7 3 4 1019.0 1018.3 0.0
 
Date/Time
WST
Temp
°C
App
Temp
°C
Dew
Point
°C
Rel
Hum
%
Delta-T
°C
Wind Press
QNH
hPa
Press
MSL
hPa
Rain since
9am
mm
Dir  Spd
km/h
Gust
km/h
Spd
kts
Gust
kts
29/11:30pm 19.3 16.9 -0.3 26 8.6 ENE 2 7 1 4 1019.1 - 0.0
29/11:00pm 20.0 17.7 0.7 27 8.7 WNW 2 6 1 3 1019.1 - 0.0
29/10:30pm 19.2 17.4 1.0 29 8.2 CALM 0 7 0 4 1019.2 - 0.0
29/10:00pm 21.1 17.9 0.6 25 9.3 E 7 9 4 5 1019.1 - 0.0
29/09:30pm 21.3 17.9 1.7 27 9.1 ESE 9 13 5 7 1018.9 - 0.0
29/09:00pm 22.1 18.7 -0.4 22 10.1 ESE 7 11 4 6 1018.7 1018.0 0.0
29/08:30pm 21.9 19.2 2.5 28 9.2 E 6 7 3 4 1018.4 - 0.0
29/08:00pm 22.8 20.1 2.8 27 9.6 E 6 7 3 4 1018.2 - 0.0
29/07:30pm 23.5 20.7 2.1 24 10.2 E 6 7 3 4 1017.9 - 0.0
29/07:00pm 24.4 21.8 1.0 21 11.0 S 4 7 2 4 1017.5 - 0.0
29/06:30pm 24.8 22.2 1.1 21 11.2 SSE 4 7 2 4 1017.2 - 0.0
29/06:00pm 26.1 23.2 2.6 21 11.5 SSE 7 9 4 5 1017.0 1016.3 0.0
29/05:30pm 27.0 24.0 2.0 20 12.2 S 7 11 4 6 1016.6 - 0.0
29/05:00pm 28.0 24.5 1.1 17 13.0 SSE 9 13 5 7 1016.3 - 0.0
29/04:30pm 29.6 24.8 -2.8 12 14.8 SSE 13 20 7 11 1016.0 - 0.0
29/04:00pm 30.2 25.0 -2.6 12 15.1 SE 15 20 8 11 1015.8 - 0.0
29/03:30pm 30.4 25.3 -1.6 12 15.0 ESE 15 20 8 11 1015.7 - 0.0
29/03:00pm 30.6 25.7 -0.6 13 14.9 SE 15 24 8 13 1015.6 1014.9 0.0
29/02:30pm 30.4 25.5 -0.6 13 14.8 SE 15 24 8 13 1015.5 - 0.0
29/02:00pm 30.6 26.7 1.2 15 14.5 E 11 22 6 12 1015.7 - 0.0
29/01:30pm 29.5 25.8 2.5 17 13.5 ESE 11 20 6 11 1016.1 - 0.0
29/01:00pm 28.8 24.7 2.1 18 13.2 ENE 13 20 7 11 1016.6 - 0.0
29/12:30pm 28.6 25.0 2.8 19 12.9 E 11 24 6 13 1017.1 - 0.0
29/12:00pm 27.7 23.7 2.7 20 12.4 NE 13 28 7 15 1017.8 1017.2 0.0
29/11:30am 26.8 22.5 3.3 22 11.7 ESE 15 20 8 11 1018.5 - 0.0
29/11:00am 26.2 21.8 2.8 22 11.5 E 15 24 8 13 1019.0 - 0.0
29/10:30am 25.6 21.7 3.3 23 11.0 ENE 13 20 7 11 1019.5 - 0.0
29/10:00am 24.7 20.5 3.6 25 10.4 E 15 22 8 12 1020.0 - 0.0
29/09:30am 24.0 19.5 4.0 27 9.9 E 17 24 9 13 1020.4 - 0.0
29/09:00am 23.2 18.6 3.8 28 9.5 E 17 24 9 13 1020.7 - 0.0
29/08:30am 23.0 18.9 4.4 29 9.2 E 15 20 8 11 1020.9 - 0.0
29/07:30am 21.3 18.7 6.0 37 7.7 E 9 11 5 6 1020.6 - 0.0
29/07:00am 20.5 18.6 6.7 40 7.0 E 6 9 3 5 1020.4 - 0.0
29/06:30am 18.9 18.0 7.8 48 5.7 E 2 7 1 4 1020.1 - 0.0
29/06:00am 17.8 16.9 7.8 52 5.1 E 2 6 1 3 1019.8 - 0.0
29/05:30am 18.8 17.4 7.4 47 5.8 E 4 7 2 4 1019.7 - 0.0
29/05:00am 18.1 17.6 7.7 50 5.3 CALM 0 0 0 0 1019.6 - 0.0
29/04:30am 19.0 18.6 8.4 50 5.5 CALM 0 0 0 0 1019.3 - 0.0
29/04:00am 19.1 18.0 8.6 50 5.5 S 4 7 2 4 1019.2 - 0.0
29/03:30am 18.8 17.8 8.7 52 5.3 W 4 6 2 3 1019.0 - 0.0
29/03:00am 18.8 17.4 8.7 52 5.3 NNW 6 7 3 4 1018.9 1018.2 0.0
29/02:30am 19.4 18.1 9.2 51 5.4 SE 6 7 3 4 1018.8 - 0.0
29/02:00am 19.1 17.9 9.7 54 5.0 SE 6 7 3 4 1018.8 - 0.0
29/01:30am 19.7 18.5 9.4 51 5.5 ESE 6 9 3 5 1018.8 - 0.0
29/01:00am 20.4 18.9 9.1 48 6.0 SE 7 9 4 5 1018.9 - 0.0
29/12:30am 21.5 20.8 9.9 47 6.3 S 4 9 2 5 1019.1 - 0.0
29/12:00am 20.8 20.6 10.4 51 5.7 SSE 2 6 1 3 1019.1 1018.4 0.0
 
Date/Time
WST
Temp
°C
App
Temp
°C
Dew
Point
°C
Rel
Hum
%
Delta-T
°C
Wind Press
QNH
hPa
Press
MSL
hPa
Rain since
9am
mm
Dir  Spd
km/h
Gust
km/h
Spd
kts
Gust
kts
28/11:30pm 21.4 20.4 11.1 52 5.7 E 7 9 4 5 1019.0 - 0.0
28/11:00pm 22.0 20.6 11.0 49 6.1 ESE 9 11 5 6 1019.1 - 0.0
28/10:30pm 22.8 21.0 10.7 46 6.7 ESE 11 13 6 7 1019.0 - 0.0
28/10:00pm 22.9 20.6 10.6 45 6.8 SE 13 13 7 7 1019.0 - 0.0
28/09:30pm 23.4 21.6 10.9 45 7.0 ESE 11 13 6 7 1018.9 - 0.0
28/09:00pm 23.7 22.3 11.0 44 7.1 ESE 9 13 5 7 1018.7 1018.0 0.0
28/08:30pm 24.8 22.9 10.5 40 8.0 SSE 11 13 6 7 1018.4 - 0.0
28/07:30pm 25.3 24.6 11.4 41 7.9 ESE 6 7 3 4 1018.1 - 0.0
28/07:00pm 25.5 24.8 11.9 42 7.8 NNE 7 9 4 5 1017.9 - -
28/06:08pm 26.1 25.0 10.7 38 8.7 ENE 7 9 4 5 1017.1 - 0.0
28/06:00pm 26.2 25.1 10.8 38 8.7 ENE 7 9 4 5 1017.0 1016.3 0.0
28/05:54pm 26.4 25.1 11.1 38 8.7 ENE 9 9 5 5 1016.9 - 0.0
28/05:35pm 26.9 25.9 11.1 37 9.0 ENE 7 9 4 5 1016.7 - 0.0
28/05:30pm 27.1 26.2 11.2 37 9.1 ENE 7 9 4 5 1016.7 - 0.0
28/05:25pm 27.1 26.2 11.2 37 9.1 ENE 7 9 4 5 1016.6 - -
28/05:00pm 28.4 26.9 10.5 32 10.2 E 9 15 5 8 1016.2 - 0.0
28/04:30pm 29.6 27.4 9.3 28 11.4 E 11 17 6 9 1015.9 - 0.0
28/04:00pm 30.3 27.7 9.4 27 11.8 E 13 19 7 10 1015.8 - 0.0
28/03:30pm 30.2 26.7 8.7 26 12.0 E 17 24 9 13 1015.6 - 0.0
28/03:00pm 30.6 27.8 8.5 25 12.3 ENE 13 24 7 13 1015.7 1015.0 0.0
28/02:30pm 29.9 27.1 8.7 26 11.8 E 13 22 7 12 1015.5 - 0.0
28/02:00pm 30.0 26.8 8.3 25 12.0 NE 15 24 8 13 1015.8 - 0.0
28/01:30pm 29.4 26.2 8.4 27 11.6 ESE 15 24 8 13 1016.2 - 0.0
28/01:00pm 29.0 26.6 8.6 28 11.3 E 11 26 6 14 1016.4 - 0.0
28/12:30pm 29.2 26.0 8.3 27 11.5 E 15 24 8 13 1016.7 - 0.0
28/12:00pm 28.0 24.8 8.5 29 10.7 ESE 15 30 8 16 1017.2 1016.6 0.0
28/11:30am 27.0 23.7 8.0 30 10.3 E 15 22 8 12 1017.7 - 0.0
28/11:00am 26.5 22.2 7.1 29 10.3 ESE 19 28 10 15 1018.4 - 0.0
28/10:30am 25.9 22.8 7.3 30 9.9 E 13 24 7 13 1019.1 - 0.0
28/10:00am 25.0 21.4 6.9 31 9.5 E 15 24 8 13 1019.6 - 0.0
28/09:30am 24.4 21.3 7.3 33 9.0 E 13 19 7 10 1019.9 - 0.0
28/09:00am 23.4 20.3 7.4 35 8.4 ESE 13 22 7 12 - 1019.4 0.0
28/08:30am 22.9 19.4 7.1 36 8.2 ESE 15 24 8 13 1020.1 - 0.0
28/08:00am 22.7 19.6 7.4 37 8.0 ESE 13 20 7 11 1020.0 - 0.0
28/07:30am 21.6 17.8 7.6 40 7.3 SE 17 22 9 12 1019.4 - -
28/07:00am 20.4 18.7 8.2 45 6.4 E 7 11 4 6 1019.4 - 0.0
28/06:30am 19.3 17.7 8.8 50 5.5 E 7 9 4 5 1018.8 - 0.0
28/06:00am 18.0 16.5 9.0 55 4.7 E 7 9 4 5 1018.5 1017.9 0.0
28/05:30am 18.5 17.1 9.7 56 4.7 E 7 9 4 5 1017.9 - 0.0
28/05:00am 19.2 17.8 9.0 51 5.4 E 6 9 3 5 1017.5 - 0.0
28/04:30am 18.9 17.7 9.7 55 4.9 ESE 6 6 3 3 1017.1 - 0.0
28/04:00am 19.2 19.3 10.1 55 4.9 CALM 0 0 0 0 1016.9 - 0.0
28/03:30am 19.3 18.9 9.8 54 5.1 WNW 2 6 1 3 1016.7 - 0.0
28/03:00am 20.2 19.2 10.3 53 5.4 SE 6 7 3 4 1016.6 1015.9 0.0
28/02:30am 20.1 20.4 10.8 55 5.1 CALM 0 0 0 0 1016.6 - 0.0
28/02:00am 20.4 20.5 10.3 52 5.5 CALM 0 0 0 0 1016.5 - 0.0
28/01:30am 21.1 19.9 9.6 47 6.2 E 6 11 3 6 1016.6 - 0.0
28/01:00am 21.4 19.7 10.0 48 6.2 ESE 9 9 5 5 1016.6 - 0.0
28/12:30am 21.8 20.1 9.9 46 6.5 ESE 9 11 5 6 1016.9 - 0.0
28/12:00am 22.0 20.9 10.1 46 6.5 ESE 6 9 3 5 1017.1 1016.5 0.0
 
Date/Time
WST
Temp
°C
App
Temp
°C
Dew
Point
°C
Rel
Hum
%
Delta-T
°C
Wind Press
QNH
hPa
Press
MSL
hPa
Rain since
9am
mm
Dir  Spd
km/h
Gust
km/h
Spd
kts
Gust
kts
27/11:00pm 21.9 20.4 10.4 48 6.3 ESE 9 13 5 7 1017.1 - 0.0
27/10:30pm 23.3 20.5 10.0 43 7.3 SE 15 19 8 10 1017.1 - 0.0
27/10:00pm 23.3 21.0 10.5 44 7.1 SE 13 15 7 8 1017.1 - 0.0
27/09:30pm 24.0 21.7 10.3 42 7.6 SE 13 17 7 9 1017.2 - 0.0
27/09:00pm 23.9 22.6 11.1 44 7.2 ESE 9 11 5 6 1017.2 - 0.0
27/08:30pm 24.2 22.3 10.6 42 7.6 E 11 13 6 7 1016.9 - 0.0

Other Formats:

Comma delimited format used in spreadsheet applications
http://www.bom.gov.au/fwo/IDW60801/IDW60801.94217.axf

JavaScript Object Notation format (JSON) in row-major order
http://www.bom.gov.au/fwo/IDW60801/IDW60801.94217.json